MET'MAP v2.0
soon released !

Expected late october,
this new version will be
more efficient, smarter,
and hosted on a brand new
server x3 powerfull...
...and still free !


Not compatible ?
Try the mobile version !

LOG IN : | Subscribe | Disclaimer | Who is Orbifly ? |
ICAO code :
Legend : VFR Marginal VFR IFR Intensive IFR Very Intensive IFR
Visi :
Ceiling :
>= 8 km
>= 3000ft
5 to 8 km
1000 to 3000 ft
1500m to 5 km
500 to 1000 ft
800 to 1500m
200 to 500 ft
< 800m
< 200 ft

METAR - LEST Santiago de Compostela - 25 May 2020 22:45 UTC
Data Sources :     NOAA   


- Airport Elevation : 1213 ft
- IATA code : SCQ
- No reported NOTAMs.


LEST - Santiago de Compostela

Latest METAR recorded : 2015/08/11 08:00 LEST 110800Z 09004KT 040V150 8000 FEW003 19/17 Q1014 NOSIG
TAF TAF LEST
Valid from the 25 at 18:00 until the 26 at 18:00 UTC


251700Z 2518/2618 05009KT 9999 FEW030 TX25/2614Z TN12/2605Z
PROB40
TEMPO 2613/2618 05015G25KT

Source NOAA


MET'MAP, your aeronautical weather chart ! - Copyright ORBIFLY December 2007

Programming & Development : Alexandra Zaïnal
Co-Developer : Marc-Olivier Méhu
Technical & hardware support : Manuel Goepfert
Concept & Financing : Baudouin d'Aumeries